createdAt,value
2023-09-13T00:01:54.280Z,24.53
2023-09-13T00:04:22.398Z,22.47
2023-09-13T00:06:50.764Z,19.77
2023-09-13T00:09:19.449Z,20.43
2023-09-13T00:11:47.436Z,21.17
2023-09-13T00:14:15.574Z,23.03
2023-09-13T00:16:43.622Z,22.50
2023-09-13T00:19:14.118Z,31.63
2023-09-13T00:21:44.189Z,24.90
2023-09-13T00:24:12.360Z,20.83
2023-09-13T00:26:40.426Z,20.93
2023-09-13T00:29:08.404Z,27.13
2023-09-13T00:31:36.498Z,22.47
2023-09-13T00:34:04.580Z,26.23
2023-09-13T00:36:33.976Z,19.13
2023-09-13T00:39:04.027Z,22.17
2023-09-13T00:41:33.139Z,17.43
2023-09-13T00:44:01.120Z,20.20
2023-09-13T00:46:29.870Z,20.83
2023-09-13T00:48:58.670Z,20.23
2023-09-13T00:51:27.094Z,28.10
2023-09-13T00:53:58.206Z,21.73
2023-09-13T00:56:28.215Z,26.73
2023-09-13T00:58:56.872Z,24.00
2023-09-13T01:01:24.975Z,24.30
2023-09-13T01:03:53.210Z,27.40
2023-09-13T01:06:21.294Z,23.33
2023-09-13T01:08:49.364Z,24.13
2023-09-13T01:11:18.877Z,31.80
2023-09-13T01:13:47.050Z,30.97
2023-09-13T01:16:31.686Z,27.27
2023-09-13T01:19:07.644Z,24.73
2023-09-13T01:22:07.178Z,27.20
2023-09-13T01:24:54.279Z,30.20
2023-09-13T01:27:39.046Z,25.53
2023-09-13T01:30:10.622Z,19.43
2023-09-13T01:32:38.704Z,24.03
2023-09-13T01:35:07.140Z,26.03
2023-09-13T01:37:35.331Z,25.23
2023-09-13T01:40:06.998Z,25.27
2023-09-13T01:42:37.194Z,37.63
2023-09-13T01:45:07.832Z,24.50
2023-09-13T01:47:37.944Z,23.57
2023-09-13T01:50:07.618Z,21.33
2023-09-13T01:52:35.981Z,25.13
2023-09-13T01:55:08.031Z,27.30
2023-09-13T01:57:36.248Z,23.40
2023-09-13T02:00:06.029Z,21.10
2023-09-13T02:02:34.200Z,25.20
2023-09-13T02:05:04.659Z,19.77
2023-09-13T02:07:33.452Z,24.50
2023-09-13T02:10:01.602Z,23.23
2023-09-13T02:12:29.693Z,25.67
2023-09-13T02:14:57.700Z,25.83
2023-09-13T02:17:24.861Z,24.83
2023-09-13T02:19:53.180Z,39.20
2023-09-13T02:22:22.592Z,26.50
2023-09-13T02:24:50.623Z,37.23
2023-09-13T02:27:18.608Z,27.90
2023-09-13T02:29:46.605Z,27.87
2023-09-13T02:32:14.650Z,30.07
2023-09-13T02:34:45.484Z,25.40
2023-09-13T02:37:13.487Z,25.67
2023-09-13T02:39:44.250Z,21.97
2023-09-13T02:42:12.415Z,26.17
2023-09-13T02:44:40.440Z,26.47
2023-09-13T02:47:08.497Z,26.43
2023-09-13T02:49:36.544Z,31.63
2023-09-13T02:52:04.892Z,28.23
2023-09-13T02:54:33.016Z,30.90
2023-09-13T02:57:02.965Z,25.17
2023-09-13T02:59:31.015Z,27.13
2023-09-13T03:01:59.183Z,27.17
2023-09-13T03:04:27.408Z,35.97
2023-09-13T03:06:55.554Z,40.13
2023-09-13T03:09:23.646Z,30.57
2023-09-13T03:11:51.595Z,23.10
2023-09-13T03:14:21.046Z,26.10
2023-09-13T03:16:49.031Z,33.10
2023-09-13T03:19:17.011Z,33.60
2023-09-13T03:21:46.062Z,22.77
2023-09-13T03:24:14.104Z,25.37
2023-09-13T03:26:42.348Z,26.40
2023-09-13T03:29:10.599Z,32.70
2023-09-13T03:31:40.125Z,32.20
2023-09-13T03:34:08.302Z,30.67
2023-09-13T03:36:36.462Z,29.40
2023-09-13T03:39:05.239Z,30.03
2023-09-13T03:41:33.883Z,21.73
2023-09-13T03:44:03.549Z,26.20
2023-09-13T03:46:31.554Z,23.87
2023-09-13T03:49:01.392Z,22.23
2023-09-13T03:51:29.368Z,31.40
2023-09-13T03:53:59.416Z,28.20
2023-09-13T03:56:27.440Z,26.63
2023-09-13T03:58:56.443Z,27.33
2023-09-13T04:01:25.389Z,28.10
2023-09-13T04:03:53.666Z,28.63
2023-09-13T04:06:27.312Z,27.80
2023-09-13T04:08:55.409Z,29.13
2023-09-13T04:11:23.374Z,27.77
2023-09-13T04:13:51.398Z,27.40
2023-09-13T04:16:19.401Z,29.53
2023-09-13T04:18:47.598Z,31.70
2023-09-13T04:21:15.645Z,31.07
2023-09-13T04:23:45.128Z,44.00
2023-09-13T04:26:14.400Z,27.67
2023-09-13T04:28:42.755Z,33.00
2023-09-13T04:31:10.792Z,27.13
2023-09-13T04:33:52.357Z,28.83
2023-09-13T04:36:20.600Z,27.10
2023-09-13T04:38:50.514Z,30.50
2023-09-13T04:41:19.083Z,24.23
2023-09-13T04:43:47.623Z,30.80
2023-09-13T04:46:16.166Z,22.73
2023-09-13T04:48:44.255Z,27.30
2023-09-13T04:51:12.842Z,26.37
2023-09-13T04:53:40.940Z,25.97
2023-09-13T04:56:10.573Z,36.97
2023-09-13T04:58:39.326Z,28.00
2023-09-13T05:01:07.890Z,24.33
2023-09-13T05:03:36.231Z,28.30
2023-09-13T05:06:06.888Z,25.70
2023-09-13T05:08:35.795Z,26.10
2023-09-13T05:11:04.388Z,29.87
2023-09-13T05:13:34.324Z,28.10
2023-09-13T05:16:02.497Z,27.17
2023-09-13T05:18:30.609Z,29.97
2023-09-13T05:20:58.647Z,29.27
2023-09-13T05:23:26.652Z,32.60
2023-09-13T05:25:56.879Z,27.37
2023-09-13T05:28:25.608Z,26.23
2023-09-13T05:30:55.647Z,28.73
2023-09-13T05:33:25.027Z,32.17
2023-09-13T05:35:53.245Z,24.40
2023-09-13T05:38:21.232Z,32.30
2023-09-13T05:40:49.246Z,33.00
2023-09-13T05:43:17.294Z,31.93
2023-09-13T05:45:45.672Z,28.57
2023-09-13T05:48:15.327Z,37.50
2023-09-13T05:50:43.385Z,31.70
2023-09-13T05:53:11.328Z,33.37
2023-09-13T05:55:39.473Z,35.33
2023-09-13T05:58:07.519Z,33.57
2023-09-13T06:00:35.470Z,34.00
2023-09-13T06:03:03.532Z,34.23
2023-09-13T06:05:32.933Z,27.53
2023-09-13T06:08:00.897Z,32.93
2023-09-13T06:10:28.977Z,36.00
2023-09-13T06:12:57.186Z,31.50
2023-09-13T06:15:25.197Z,31.93
2023-09-13T06:17:54.988Z,31.80
2023-09-13T06:20:23.100Z,34.63
2023-09-13T06:22:52.535Z,28.80
2023-09-13T06:25:20.772Z,29.53
2023-09-13T06:27:48.892Z,31.90
2023-09-13T06:30:16.952Z,30.50
2023-09-13T06:32:45.558Z,31.60
2023-09-13T06:35:16.688Z,39.20
2023-09-13T06:37:47.196Z,37.10
2023-09-13T06:40:17.735Z,36.20
2023-09-13T06:45:26.740Z,28.60
2023-09-13T06:47:56.187Z,34.63
2023-09-13T06:53:18.561Z,30.30
2023-09-13T06:55:48.020Z,28.60
2023-09-13T06:58:18.632Z,25.87
2023-09-13T07:03:22.561Z,26.20
2023-09-13T07:05:52.280Z,28.13
2023-09-13T07:08:20.293Z,30.27
2023-09-13T07:10:49.693Z,23.53
2023-09-13T07:13:17.713Z,29.33
2023-09-13T07:15:45.712Z,26.83
2023-09-13T07:18:13.878Z,28.57
2023-09-13T07:20:41.929Z,25.43
2023-09-13T07:23:10.318Z,24.70
2023-09-13T07:25:38.556Z,28.97
2023-09-13T07:28:08.158Z,26.80
2023-09-13T07:30:36.249Z,26.30
2023-09-13T07:33:05.249Z,26.73
2023-09-13T07:35:33.278Z,29.00
2023-09-13T07:38:01.318Z,24.47
2023-09-13T07:40:29.299Z,21.37
2023-09-13T07:42:57.298Z,23.67
2023-09-13T07:45:26.797Z,24.20
2023-09-13T07:47:54.855Z,21.60
2023-09-13T07:50:30.927Z,17.37
2023-09-13T07:55:30.502Z,20.83
2023-09-13T07:57:58.535Z,22.13
2023-09-13T08:00:27.969Z,20.23
2023-09-13T08:02:56.670Z,19.07
2023-09-13T08:05:24.773Z,27.27
2023-09-13T08:07:53.990Z,21.97
2023-09-13T08:10:23.039Z,21.30
2023-09-13T08:12:51.432Z,24.83
2023-09-13T08:15:22.668Z,23.60
2023-09-13T08:17:57.140Z,21.60
2023-09-13T08:20:25.390Z,19.33
2023-09-13T08:22:53.350Z,19.63
2023-09-13T08:25:21.353Z,16.73
2023-09-13T08:27:49.502Z,21.63
2023-09-13T08:30:19.913Z,16.13
2023-09-13T08:32:48.025Z,22.40
2023-09-13T08:35:17.595Z,18.73
2023-09-13T08:37:45.581Z,14.90
2023-09-13T08:40:14.134Z,25.60
2023-09-13T08:42:42.624Z,19.77
2023-09-13T08:45:11.958Z,15.43
2023-09-13T08:47:57.294Z,17.13
2023-09-13T08:50:30.075Z,12.97
2023-09-13T08:53:01.490Z,15.00
2023-09-13T08:55:30.127Z,14.63
2023-09-13T08:57:59.178Z,21.43
2023-09-13T09:00:30.728Z,13.77
2023-09-13T09:03:04.036Z,15.13
2023-09-13T09:05:34.537Z,12.33
2023-09-13T09:08:04.264Z,12.17
2023-09-13T09:10:33.335Z,13.30
2023-09-13T09:13:03.033Z,13.23
2023-09-13T09:15:33.930Z,14.70
2023-09-13T09:18:06.524Z,15.00
2023-09-13T09:20:39.181Z,20.20
2023-09-13T09:23:08.804Z,18.50
2023-09-13T09:25:40.248Z,16.33
2023-09-13T09:28:08.495Z,12.50
2023-09-13T09:30:36.524Z,14.27
2023-09-13T09:33:05.121Z,19.20
2023-09-13T09:35:33.307Z,13.27
2023-09-13T09:38:02.731Z,11.27
2023-09-13T09:40:38.289Z,14.90
2023-09-13T09:43:06.532Z,12.93
2023-09-13T09:45:34.679Z,12.70
2023-09-13T09:48:03.473Z,18.53
2023-09-13T09:50:33.789Z,12.90
2023-09-13T09:53:10.138Z,13.07
2023-09-13T09:55:38.712Z,15.87
2023-09-13T09:58:06.994Z,11.60
2023-09-13T10:00:46.670Z,12.47
2023-09-13T10:03:19.196Z,14.03
2023-09-13T10:05:55.016Z,14.60
2023-09-13T10:11:17.941Z,14.83
2023-09-13T10:13:46.971Z,14.13
2023-09-13T10:16:16.689Z,12.40
2023-09-13T10:18:49.742Z,11.17
2023-09-13T10:21:22.062Z,20.57
2023-09-13T10:23:54.910Z,13.60
2023-09-13T10:26:26.164Z,14.97
2023-09-13T10:28:58.376Z,13.10
2023-09-13T10:31:30.232Z,9.13
2023-09-13T10:34:06.571Z,10.30
2023-09-13T10:36:39.319Z,13.23
2023-09-13T10:39:13.723Z,14.57
2023-09-13T10:41:51.468Z,12.20
2023-09-13T10:44:20.692Z,11.37
2023-09-13T10:46:49.334Z,10.33
2023-09-13T10:49:17.488Z,10.87
2023-09-13T10:51:45.988Z,12.47
2023-09-13T10:54:16.308Z,11.93
2023-09-13T10:56:46.201Z,9.80
2023-09-13T10:59:18.470Z,18.97
2023-09-13T11:01:48.114Z,12.40
2023-09-13T11:04:16.839Z,10.50
2023-09-13T11:06:45.974Z,11.60
2023-09-13T11:09:15.371Z,12.70
2023-09-13T11:11:49.635Z,15.20
2023-09-13T11:14:20.510Z,11.33
2023-09-13T11:16:48.820Z,15.47
2023-09-13T11:19:17.220Z,10.90
2023-09-13T11:21:51.116Z,9.80
2023-09-13T11:24:54.014Z,14.30
2023-09-13T11:27:27.301Z,14.57
2023-09-13T11:30:00.141Z,12.33
2023-09-13T11:32:32.187Z,13.10
2023-09-13T11:35:01.944Z,9.67
2023-09-13T11:37:33.502Z,11.73
2023-09-13T11:40:12.798Z,9.40
2023-09-13T11:45:32.272Z,16.37
2023-09-13T11:48:03.828Z,10.33
2023-09-13T11:50:48.132Z,12.57
2023-09-13T11:53:21.384Z,10.03
2023-09-13T11:56:10.393Z,17.43
2023-09-13T11:58:57.661Z,7.97
2023-09-13T12:01:29.833Z,17.47
2023-09-13T12:06:44.696Z,10.03
2023-09-13T12:09:20.489Z,13.43
2023-09-13T12:11:56.914Z,11.00
2023-09-13T12:14:40.783Z,11.70
2023-09-13T12:17:15.878Z,10.63
2023-09-13T12:19:47.039Z,12.63
2023-09-13T12:22:15.861Z,10.40
2023-09-13T12:24:52.817Z,9.90
2023-09-13T12:27:20.983Z,10.03
2023-09-13T12:29:50.463Z,9.67
2023-09-13T12:32:18.650Z,9.80
2023-09-13T12:34:46.783Z,8.30
2023-09-13T12:37:16.301Z,9.80
2023-09-13T12:39:45.070Z,11.13
2023-09-13T12:42:13.385Z,8.13
2023-09-13T12:44:42.100Z,11.83
2023-09-13T12:47:11.563Z,13.70
2023-09-13T12:49:40.172Z,11.50
2023-09-13T12:52:08.276Z,10.63
2023-09-13T12:54:36.443Z,8.20
2023-09-13T12:57:05.014Z,9.30
2023-09-13T12:59:44.963Z,8.07
2023-09-13T13:02:19.392Z,9.13
2023-09-13T13:04:47.850Z,9.20
2023-09-13T13:07:23.156Z,11.57
2023-09-13T13:09:54.850Z,8.20
2023-09-13T13:12:22.946Z,7.17
2023-09-13T13:14:51.856Z,14.03
2023-09-13T13:17:22.355Z,10.97
2023-09-13T13:19:56.889Z,7.23
2023-09-13T13:22:27.443Z,10.60
2023-09-13T13:24:55.744Z,12.00
2023-09-13T13:27:23.887Z,10.00
2023-09-13T13:29:52.913Z,10.37
2023-09-13T13:32:22.355Z,14.90
2023-09-13T13:34:50.932Z,22.63
2023-09-13T13:37:20.632Z,11.87
2023-09-13T13:39:48.682Z,11.93
2023-09-13T13:42:16.753Z,13.00
2023-09-13T13:44:44.757Z,18.37
2023-09-13T13:47:13.121Z,13.90
2023-09-13T13:49:42.533Z,14.67
2023-09-13T13:52:10.592Z,17.63
2023-09-13T13:54:38.751Z,13.53
2023-09-13T13:57:07.023Z,11.07
2023-09-13T13:59:35.332Z,18.60
2023-09-13T14:02:05.019Z,27.30
2023-09-13T14:04:34.191Z,12.57
2023-09-13T14:07:03.917Z,13.37
2023-09-13T14:09:32.190Z,15.60
2023-09-13T14:12:00.325Z,19.10
2023-09-13T14:14:29.850Z,17.10
2023-09-13T14:16:57.972Z,14.20
2023-09-13T14:19:26.077Z,11.93
2023-09-13T14:21:54.158Z,13.37
2023-09-13T14:24:23.628Z,19.53
2023-09-13T14:26:51.690Z,16.53
2023-09-13T14:29:19.652Z,17.23
2023-09-13T14:31:47.713Z,15.47
2023-09-13T14:34:15.862Z,16.27
2023-09-13T14:36:43.885Z,12.40
2023-09-13T14:39:11.992Z,13.90
2023-09-13T14:41:42.249Z,12.40
2023-09-13T14:44:10.564Z,22.23
2023-09-13T14:46:38.674Z,14.40
2023-09-13T14:49:06.997Z,18.60
2023-09-13T14:51:35.400Z,15.57
2023-09-13T14:54:04.760Z,12.57
2023-09-13T14:56:32.854Z,11.00
2023-09-13T14:59:02.247Z,11.10
2023-09-13T15:01:30.414Z,13.63
2023-09-13T15:03:58.482Z,14.83
2023-09-13T15:06:26.598Z,12.30
2023-09-13T15:08:57.250Z,11.47
2023-09-13T15:11:25.378Z,13.70
2023-09-13T15:13:53.334Z,14.20
2023-09-13T15:16:22.740Z,9.07
2023-09-13T15:18:51.545Z,15.20
2023-09-13T15:21:19.695Z,20.50
2023-09-13T15:23:47.704Z,10.67
2023-09-13T15:26:15.707Z,12.77
2023-09-13T15:28:43.965Z,13.23
2023-09-13T15:31:12.537Z,13.97
2023-09-13T15:33:42.475Z,16.07
2023-09-13T15:36:10.537Z,16.07
2023-09-13T15:38:49.284Z,11.10
2023-09-13T15:41:21.421Z,10.43
2023-09-13T15:43:49.526Z,14.87
2023-09-13T15:46:17.589Z,18.83
2023-09-13T15:48:48.217Z,9.40
2023-09-13T15:51:16.817Z,12.17
2023-09-13T15:53:45.087Z,13.30
2023-09-13T15:56:13.168Z,13.17
2023-09-13T15:58:42.768Z,11.40
2023-09-13T16:01:11.901Z,13.63
2023-09-13T16:03:40.107Z,12.37
2023-09-13T16:06:09.533Z,10.33
2023-09-13T16:08:37.668Z,11.07
2023-09-13T16:11:05.692Z,11.80
2023-09-13T16:13:33.755Z,18.47
2023-09-13T16:16:02.053Z,12.63
2023-09-13T16:18:30.200Z,21.47
2023-09-13T16:20:59.022Z,14.60
2023-09-13T16:23:28.611Z,15.80
2023-09-13T16:25:56.559Z,12.13
2023-09-13T16:28:24.862Z,14.60
2023-09-13T16:30:52.994Z,13.43
2023-09-13T16:33:21.210Z,11.20
2023-09-13T16:35:49.294Z,16.00
2023-09-13T16:38:17.277Z,14.67
2023-09-13T16:40:46.665Z,20.90
2023-09-13T16:43:14.778Z,11.87
2023-09-13T16:45:42.983Z,14.33
2023-09-13T16:48:23.475Z,11.53
2023-09-13T16:50:52.014Z,12.67
2023-09-13T16:53:21.363Z,9.13
2023-09-13T16:55:50.727Z,10.77
2023-09-13T16:58:18.791Z,10.20
2023-09-13T17:00:48.791Z,9.40
2023-09-13T17:03:17.177Z,16.43
2023-09-13T17:05:45.308Z,10.67
2023-09-13T17:08:13.307Z,16.03
2023-09-13T17:10:41.371Z,8.50
2023-09-13T17:13:20.604Z,11.53
2023-09-13T17:15:49.002Z,9.50
2023-09-13T17:18:17.378Z,15.67
2023-09-13T17:20:45.700Z,11.83
2023-09-13T17:23:13.802Z,17.33
2023-09-13T17:25:41.951Z,13.00
2023-09-13T17:28:11.343Z,9.00
2023-09-13T17:30:39.411Z,14.47
2023-09-13T17:33:07.468Z,11.40
2023-09-13T17:35:36.353Z,10.93
2023-09-13T17:38:05.467Z,8.63
2023-09-13T17:40:33.443Z,14.43
2023-09-13T17:43:02.993Z,10.83
2023-09-13T17:45:33.973Z,15.10
2023-09-13T17:48:02.041Z,7.97
2023-09-13T17:50:30.035Z,12.13
2023-09-13T17:52:58.074Z,11.50
2023-09-13T17:55:26.085Z,7.27
2023-09-13T17:57:54.116Z,10.03
2023-09-13T18:00:22.945Z,8.97
2023-09-13T18:02:53.226Z,6.67
2023-09-13T18:05:21.357Z,6.80
2023-09-13T18:07:50.180Z,9.70
2023-09-13T18:10:18.656Z,8.43
2023-09-13T18:12:48.297Z,6.60
2023-09-13T18:15:16.559Z,7.13
2023-09-13T18:17:54.449Z,8.47
2023-09-13T18:20:27.468Z,6.70
2023-09-13T18:22:55.617Z,7.33
2023-09-13T18:25:23.856Z,6.07
2023-09-13T18:27:51.852Z,7.47
2023-09-13T18:30:20.152Z,6.10
2023-09-13T18:32:48.203Z,7.23
2023-09-13T18:35:17.015Z,5.23
2023-09-13T18:37:46.472Z,6.97
2023-09-13T18:40:14.493Z,12.00
2023-09-13T18:42:42.524Z,11.83
2023-09-13T18:45:11.174Z,7.47
2023-09-13T18:47:39.156Z,6.20
2023-09-13T18:50:08.573Z,8.57
2023-09-13T18:52:36.694Z,6.60
2023-09-13T18:55:06.630Z,6.83
2023-09-13T18:57:34.682Z,7.07
2023-09-13T19:00:04.189Z,9.37
2023-09-13T19:02:32.292Z,10.53
2023-09-13T19:05:00.440Z,6.60
2023-09-13T19:07:28.503Z,7.53
2023-09-13T19:09:56.550Z,11.10
2023-09-13T19:12:26.142Z,9.70
2023-09-13T19:14:54.178Z,9.60
2023-09-13T19:17:22.261Z,8.23
2023-09-13T19:19:50.280Z,9.30
2023-09-13T19:22:18.242Z,6.43
2023-09-13T19:24:56.539Z,9.03
2023-09-13T19:27:27.209Z,7.83
2023-09-13T19:29:55.271Z,7.70
2023-09-13T19:32:23.304Z,7.57
2023-09-13T19:34:51.358Z,8.80
2023-09-13T19:37:19.473Z,9.30
2023-09-13T19:39:47.625Z,6.40
2023-09-13T19:42:15.754Z,12.50
2023-09-13T19:44:45.123Z,7.60
2023-09-13T19:47:13.998Z,10.77
2023-09-13T19:49:41.980Z,8.43
2023-09-13T19:52:10.017Z,8.77
2023-09-13T19:54:39.022Z,9.10
2023-09-13T19:57:08.285Z,9.60
2023-09-13T19:59:38.322Z,10.10
2023-09-13T20:02:08.144Z,8.00
2023-09-13T20:04:36.244Z,10.40
2023-09-13T20:07:04.349Z,10.10
2023-09-13T20:09:32.401Z,11.13
2023-09-13T20:12:04.840Z,8.83
2023-09-13T20:14:32.922Z,10.43
2023-09-13T20:17:00.940Z,9.57
2023-09-13T20:19:30.567Z,10.93
2023-09-13T20:21:58.638Z,13.07
2023-09-13T20:24:26.838Z,10.50
2023-09-13T20:26:55.154Z,11.10
2023-09-13T20:29:27.133Z,12.97
2023-09-13T20:31:55.270Z,8.70
2023-09-13T20:34:24.590Z,12.63
2023-09-13T20:36:54.030Z,10.83
2023-09-13T20:39:22.151Z,13.30
2023-09-13T20:41:50.229Z,11.17
2023-09-13T20:44:18.235Z,8.77
2023-09-13T20:46:47.225Z,9.70
2023-09-13T20:49:15.364Z,10.13
2023-09-13T20:51:43.431Z,9.73
2023-09-13T20:54:12.788Z,8.07
2023-09-13T20:56:40.735Z,7.93
2023-09-13T20:59:08.702Z,9.53
2023-09-13T21:01:36.754Z,10.20
2023-09-13T21:04:05.434Z,12.67
2023-09-13T21:06:33.495Z,12.27
2023-09-13T21:09:01.510Z,10.20
2023-09-13T21:11:30.850Z,9.87
2023-09-13T21:13:58.848Z,11.83
2023-09-13T21:16:26.918Z,9.50
2023-09-13T21:18:55.695Z,11.90
2023-09-13T21:21:23.775Z,9.17
2023-09-13T21:23:51.791Z,9.47
2023-09-13T21:26:19.763Z,11.70
2023-09-13T21:28:49.372Z,9.50
2023-09-13T21:31:17.801Z,11.90
2023-09-13T21:33:46.910Z,10.60
2023-09-13T21:36:15.825Z,10.63
2023-09-13T21:38:44.513Z,8.70
2023-09-13T21:41:12.864Z,11.20
2023-09-13T21:43:41.205Z,11.47
2023-09-13T21:46:10.647Z,9.63
2023-09-13T21:48:41.835Z,9.70
2023-09-13T21:51:11.755Z,8.37
2023-09-13T21:53:40.112Z,8.30
2023-09-13T21:56:09.670Z,10.63
2023-09-13T21:58:37.919Z,9.77
2023-09-13T22:01:06.080Z,9.10
2023-09-13T22:03:35.672Z,13.83
2023-09-13T22:06:03.949Z,14.73
2023-09-13T22:08:32.496Z,15.20
2023-09-13T22:11:05.477Z,9.20
2023-09-13T22:13:33.696Z,11.70
2023-09-13T22:16:01.937Z,11.83
2023-09-13T22:18:30.534Z,16.40
2023-09-13T22:21:03.010Z,10.00
2023-09-13T22:23:32.578Z,12.40
2023-09-13T22:26:00.854Z,12.73
2023-09-13T22:28:29.255Z,12.90
2023-09-13T22:31:01.178Z,13.60
2023-09-13T22:33:31.026Z,12.80
2023-09-13T22:36:04.926Z,13.20
2023-09-13T22:38:33.057Z,14.53
2023-09-13T22:41:02.556Z,12.63
2023-09-13T22:43:30.649Z,14.43
2023-09-13T22:45:58.818Z,12.23
2023-09-13T22:48:27.115Z,12.20
2023-09-13T22:50:55.395Z,13.23
2023-09-13T22:53:24.867Z,21.20
2023-09-13T22:55:53.900Z,17.30
2023-09-13T22:58:22.386Z,13.37
2023-09-13T23:00:50.498Z,17.23
2023-09-13T23:03:30.198Z,15.77
2023-09-13T23:06:06.861Z,12.93
2023-09-13T23:08:38.898Z,16.00
2023-09-13T23:11:07.385Z,13.80
2023-09-13T23:13:35.897Z,15.23
2023-09-13T23:16:05.789Z,14.53
2023-09-13T23:18:37.135Z,16.83
2023-09-13T23:21:05.612Z,16.00
2023-09-13T23:23:34.359Z,14.30
2023-09-13T23:26:05.656Z,16.47
2023-09-13T23:28:34.888Z,13.40
2023-09-13T23:31:07.487Z,12.60
2023-09-13T23:33:36.594Z,12.73
2023-09-13T23:36:05.663Z,17.60
2023-09-13T23:38:34.125Z,17.80
2023-09-13T23:41:06.874Z,19.73
2023-09-13T23:43:35.348Z,16.30
2023-09-13T23:46:04.811Z,16.57
2023-09-13T23:48:33.908Z,16.47
2023-09-13T23:51:04.122Z,24.77
2023-09-13T23:53:32.230Z,17.73
2023-09-13T23:56:00.615Z,16.30
2023-09-13T23:58:30.168Z,15.43
